Private Wetterstation Nrnberg - Katzwang
Wetterdaten: November 2010
Datum Temp. A. Feuchte A. Luftdruck Regen Wind Richtung Taupunkt Windchill Windben
01.11.2010 8,4 C 82 % 1007 hPa 0,0 l/m 2,4 km/h N-NO 5,4 C 8,0 C 3,4 km/h
02.11.2010 6,3 C 90 % 1015 hPa 0,0 l/m 0,0 km/h W-NW 4,8 C 6,3 C 1,0 km/h
03.11.2010 11,1 C 82 % 1017 hPa 0,0 l/m 8,6 km/h N-NO 8,1 C 9,5 C 9,6 km/h
04.11.2010 14,6 C 79 % 1022 hPa 0,0 l/m 7,2 km/h W-NW 10,9 C 13,5 C 8,2 km/h
05.11.2010 13,8 C 72 % 1021 hPa 0,0 l/m 1,0 km/h W-NW 8,8 C 13,8 C 2,0 km/h
06.11.2010 10,6 C 80 % 1011 hPa 4,1 l/m 4,9 km/h W-NW 7,1 C 9,6 C 8,7 km/h
07.11.2010 6,3 C 93 % 998 hPa 8,8 l/m 0,3 km/h W-NW 5,2 C 6,3 C 1,4 km/h
08.11.2010 5,1 C 89 % 983 hPa 1,0 l/m 0,3 km/h NO 3,4 C 5,1 C 1,4 km/h
09.11.2010 3,8 C 88 % 981 hPa 0,0 l/m 5,6 km/h NO 2,0 C 2,7 C 6,6 km/h
10.11.2010 6,2 C 88 % 993 hPa 7,3 l/m 3,4 km/h NO 4,3 C 5,2 C 4,4 km/h
11.11.2010 5,9 C 84 % 1003 hPa 3,6 l/m 9,3 km/h W-NW 3,3 C 3,5 C 14,0 km/h
12.11.2010 10,8 C 84 % 999 hPa 5,7 l/m 8,9 km/h W-NW 8,0 C 9,0 C 9,9 km/h
13.11.2010 13,3 C 75 % 1001 hPa 0,0 l/m 7,7 km/h W-NW 8,7 C 12,6 C 8,7 km/h
14.11.2010 11,4 C 78 % 1003 hPa 0,0 l/m 6,5 km/h NO 7,5 C 9,5 C 7,5 km/h
15.11.2010 10,0 C 85 % 1009 hPa 0,0 l/m 0,0 km/h N 7,5 C 10,0 C 1,0 km/h
16.11.2010 4,2 C 93 % 1014 hPa 15,0 l/m 3,4 km/h N 3,1 C 3,9 C 4,4 km/h
17.11.2010 4,8 C 92 % 1008 hPa 0,0 l/m 0,7 km/h NO 3,6 C 4,8 C 1,7 km/h
18.11.2010 4,3 C 88 % 1009 hPa 0,0 l/m 2,1 km/h W-NW 2,4 C 4,3 C 3,1 km/h
19.11.2010 5,6 C 88 % 1015 hPa 0,0 l/m 3,3 km/h NO 3,7 C 5,6 C 4,3 km/h
20.11.2010 3,6 C 89 % 1012 hPa 0,0 l/m 3,9 km/h O 2,0 C 3,4 C 4,9 km/h
21.11.2010 4,6 C 84 % 1003 hPa 0,0 l/m 3,1 km/h O 2,1 C 4,5 C 4,1 km/h
22.11.2010 2,7 C 93 % 996 hPa 6,2 l/m 5,5 km/h W-NW 1,7 C 2,7 C 6,5 km/h
23.11.2010 2,3 C 88 % 1001 hPa 2,1 l/m 7,4 km/h W-NW 0,4 C 0,8 C 8,4 km/h
24.11.2010 2,4 C 89 % 1003 hPa 2,1 l/m 1,7 km/h W-NW 0,7 C 2,3 C 2,7 km/h
25.11.2010 2,0 C 90 % 1000 hPa 2,1 l/m 6,3 km/h N-NO 0,4 C -0,5 C 7,3 km/h
26.11.2010 0,3 C 91 % 1001 hPa 1,6 l/m 0,0 km/h O -1,1 C 0,3 C 1,0 km/h
27.11.2010 -1,6 C 88 % 1003 hPa 0,5 l/m 1,7 km/h O-NO -3,4 C -1,7 C 2,7 km/h
28.11.2010 -1,4 C 86 % 1001 hPa 0,0 l/m 5,3 km/h NO -3,4 C -1,7 C 6,3 km/h
29.11.2010 -1,5 C 90 % 1003 hPa 0,0 l/m 1,2 km/h O -2,9 C -1,5 C 2,2 km/h
30.11.2010 -2,9 C 86 % 1007 hPa 0,0 l/m 3,8 km/h O -5,0 C -3,0 C 4,8 km/h
Min-Datum 30.11.10 14.11.10 09.11.10 13 Tage 01.11.10 - 30.11.10 30.11.10 01.11.10
Min-Zeit 23:40 14:30 00:10 - 00:00 - 23:40 21:00 00:00
Minimum -4,5 C 59 % 979 hPa - 0,0 km/h - -6,6 C -13,4 C 1,0 km/h
Max-Datum 13.11.10 09.11.10 04.11.10 16.11.10 13.11.10 - 04.11.10 13.11.10 13.11.10
Max-Zeit 11:10 09:20 18:00 08:50 00:00 - 13:50 12:50 01:50
Maximum 17,8 C 94 % 1024 hPa 15,0 l/m 42,4 km/h
W-NW
- 12,0 C 17,6 C 66,7 km/h
W-NW
Durchschnitt 5,6 C 86 % 1005 hPa #60,1 l/m 3,8 km/h W-NW 3,3 C 5,0 C 5,1 km/h

Durchschnitt Minimum Temp.3,4 C
Durchschnitt Maximum Temp.8,4 C